sensor_id;sensor_type;location;lat;lon;timestamp;P1;durP1;ratioP1;P2;durP2;ratioP2
67930;SDS011;63902;52.000;5.954;2024-01-16T00:00:15;6.28;;;2.25;;
67930;SDS011;63902;52.000;5.954;2024-01-16T00:01:16;5.05;;;1.90;;
67930;SDS011;63902;52.000;5.954;2024-01-16T00:02:16;7.03;;;2.60;;
67930;SDS011;63902;52.000;5.954;2024-01-16T00:03:16;5.43;;;1.88;;
67930;SDS011;63902;52.000;5.954;2024-01-16T00:04:17;5.22;;;1.80;;
67930;SDS011;63902;52.000;5.954;2024-01-16T00:05:17;4.28;;;1.63;;
67930;SDS011;63902;52.000;5.954;2024-01-16T00:06:18;8.30;;;2.22;;
67930;SDS011;63902;52.000;5.954;2024-01-16T00:07:19;5.15;;;1.75;;
67930;SDS011;63902;52.000;5.954;2024-01-16T00:08:19;11.27;;;2.05;;
67930;SDS011;63902;52.000;5.954;2024-01-16T00:09:20;6.13;;;2.15;;
67930;SDS011;63902;52.000;5.954;2024-01-16T00:10:22;7.95;;;2.13;;
67930;SDS011;63902;52.000;5.954;2024-01-16T00:11:22;5.93;;;2.13;;
67930;SDS011;63902;52.000;5.954;2024-01-16T00:12:22;7.57;;;2.13;;
67930;SDS011;63902;52.000;5.954;2024-01-16T00:13:23;7.13;;;2.42;;
67930;SDS011;63902;52.000;5.954;2024-01-16T00:14:23;6.35;;;2.47;;
67930;SDS011;63902;52.000;5.954;2024-01-16T00:15:24;4.80;;;2.00;;
67930;SDS011;63902;52.000;5.954;2024-01-16T00:16:24;4.60;;;2.08;;
67930;SDS011;63902;52.000;5.954;2024-01-16T00:17:25;7.25;;;2.05;;
67930;SDS011;63902;52.000;5.954;2024-01-16T00:18:25;6.32;;;2.30;;
67930;SDS011;63902;52.000;5.954;2024-01-16T00:19:26;7.45;;;2.20;;
67930;SDS011;63902;52.000;5.954;2024-01-16T00:20:26;4.40;;;2.00;;
67930;SDS011;63902;52.000;5.954;2024-01-16T00:21:27;6.13;;;2.20;;
67930;SDS011;63902;52.000;5.954;2024-01-16T00:22:27;4.82;;;2.00;;
67930;SDS011;63902;52.000;5.954;2024-01-16T00:23:28;4.18;;;2.10;;
67930;SDS011;63902;52.000;5.954;2024-01-16T00:24:28;7.85;;;1.88;;
67930;SDS011;63902;52.000;5.954;2024-01-16T00:25:30;4.68;;;1.80;;
67930;SDS011;63902;52.000;5.954;2024-01-16T00:26:30;12.32;;;3.20;;
67930;SDS011;63902;52.000;5.954;2024-01-16T00:27:31;6.10;;;2.05;;
67930;SDS011;63902;52.000;5.954;2024-01-16T00:28:31;9.15;;;1.98;;
67930;SDS011;63902;52.000;5.954;2024-01-16T00:29:32;4.70;;;2.03;;
67930;SDS011;63902;52.000;5.954;2024-01-16T00:30:32;4.90;;;2.17;;
67930;SDS011;63902;52.000;5.954;2024-01-16T00:31:33;10.80;;;2.00;;
67930;SDS011;63902;52.000;5.954;2024-01-16T00:32:33;6.40;;;1.60;;
67930;SDS011;63902;52.000;5.954;2024-01-16T00:33:34;5.22;;;1.77;;
67930;SDS011;63902;52.000;5.954;2024-01-16T00:34:34;3.47;;;1.98;;
67930;SDS011;63902;52.000;5.954;2024-01-16T00:35:35;12.95;;;2.10;;
67930;SDS011;63902;52.000;5.954;2024-01-16T00:36:35;6.30;;;1.73;;
67930;SDS011;63902;52.000;5.954;2024-01-16T00:37:36;5.70;;;1.45;;
67930;SDS011;63902;52.000;5.954;2024-01-16T00:38:36;5.05;;;1.60;;
67930;SDS011;63902;52.000;5.954;2024-01-16T00:39:37;9.13;;;3.22;;
67930;SDS011;63902;52.000;5.954;2024-01-16T00:40:39;10.30;;;2.60;;
67930;SDS011;63902;52.000;5.954;2024-01-16T00:41:39;4.95;;;2.08;;
67930;SDS011;63902;52.000;5.954;2024-01-16T00:42:40;10.13;;;1.45;;
67930;SDS011;63902;52.000;5.954;2024-01-16T00:43:40;12.20;;;2.42;;
67930;SDS011;63902;52.000;5.954;2024-01-16T00:44:41;5.05;;;1.40;;
67930;SDS011;63902;52.000;5.954;2024-01-16T00:45:41;2.20;;;1.15;;
67930;SDS011;63902;52.000;5.954;2024-01-16T00:46:41;6.63;;;1.77;;
67930;SDS011;63902;52.000;5.954;2024-01-16T00:47:42;5.95;;;1.98;;
67930;SDS011;63902;52.000;5.954;2024-01-16T00:48:42;5.13;;;1.38;;
67930;SDS011;63902;52.000;5.954;2024-01-16T00:49:43;10.63;;;2.45;;
67930;SDS011;63902;52.000;5.954;2024-01-16T00:50:43;9.00;;;3.17;;
67930;SDS011;63902;52.000;5.954;2024-01-16T00:51:44;8.90;;;1.42;;
67930;SDS011;63902;52.000;5.954;2024-01-16T00:52:44;5.10;;;1.50;;
67930;SDS011;63902;52.000;5.954;2024-01-16T00:53:45;8.27;;;2.35;;
67930;SDS011;63902;52.000;5.954;2024-01-16T00:54:45;5.30;;;1.98;;
67930;SDS011;63902;52.000;5.954;2024-01-16T00:55:47;13.55;;;1.42;;
67930;SDS011;63902;52.000;5.954;2024-01-16T00:56:47;3.05;;;1.20;;
67930;SDS011;63902;52.000;5.954;2024-01-16T00:57:48;17.90;;;1.65;;
67930;SDS011;63902;52.000;5.954;2024-01-16T00:58:48;7.13;;;1.30;;
67930;SDS011;63902;52.000;5.954;2024-01-16T00:59:49;12.15;;;2.47;;
67930;SDS011;63902;52.000;5.954;2024-01-16T01:00:49;8.20;;;1.55;;
67930;SDS011;63902;52.000;5.954;2024-01-16T01:01:50;4.65;;;1.45;;
67930;SDS011;63902;52.000;5.954;2024-01-16T01:02:50;7.68;;;1.10;;
67930;SDS011;63902;52.000;5.954;2024-01-16T01:03:51;1.77;;;1.08;;
67930;SDS011;63902;52.000;5.954;2024-01-16T01:04:51;7.45;;;2.40;;
67930;SDS011;63902;52.000;5.954;2024-01-16T01:05:52;3.97;;;1.30;;
67930;SDS011;63902;52.000;5.954;2024-01-16T01:06:52;8.05;;;1.30;;
67930;SDS011;63902;52.000;5.954;2024-01-16T01:07:53;1.35;;;0.90;;
67930;SDS011;63902;52.000;5.954;2024-01-16T01:08:53;4.35;;;1.13;;
67930;SDS011;63902;52.000;5.954;2024-01-16T01:09:54;4.20;;;1.20;;
67930;SDS011;63902;52.000;5.954;2024-01-16T01:10:55;7.45;;;1.40;;
67930;SDS011;63902;52.000;5.954;2024-01-16T01:11:56;5.07;;;1.70;;
67930;SDS011;63902;52.000;5.954;2024-01-16T01:12:56;5.00;;;1.30;;
67930;SDS011;63902;52.000;5.954;2024-01-16T01:13:57;7.15;;;1.75;;
67930;SDS011;63902;52.000;5.954;2024-01-16T01:14:57;6.30;;;1.40;;
67930;SDS011;63902;52.000;5.954;2024-01-16T01:15:58;4.82;;;1.20;;
67930;SDS011;63902;52.000;5.954;2024-01-16T01:16:58;6.95;;;1.50;;
67930;SDS011;63902;52.000;5.954;2024-01-16T01:17:59;2.95;;;1.42;;
67930;SDS011;63902;52.000;5.954;2024-01-16T01:18:59;2.80;;;1.27;;
67930;SDS011;63902;52.000;5.954;2024-01-16T01:20:00;5.00;;;1.42;;
67930;SDS011;63902;52.000;5.954;2024-01-16T01:21:00;5.72;;;1.50;;
67930;SDS011;63902;52.000;5.954;2024-01-16T01:22:01;4.97;;;1.30;;
67930;SDS011;63902;52.000;5.954;2024-01-16T01:23:01;3.75;;;1.35;;
67930;SDS011;63902;52.000;5.954;2024-01-16T01:24:02;5.65;;;1.40;;
67930;SDS011;63902;52.000;5.954;2024-01-16T01:25:03;2.60;;;1.25;;
67930;SDS011;63902;52.000;5.954;2024-01-16T01:26:06;6.18;;;1.58;;
67930;SDS011;63902;52.000;5.954;2024-01-16T01:27:06;11.93;;;1.75;;
67930;SDS011;63902;52.000;5.954;2024-01-16T01:28:07;12.48;;;2.33;;
67930;SDS011;63902;52.000;5.954;2024-01-16T01:29:07;3.28;;;1.35;;
67930;SDS011;63902;52.000;5.954;2024-01-16T01:30:08;2.92;;;1.35;;
67930;SDS011;63902;52.000;5.954;2024-01-16T01:31:09;7.97;;;2.00;;
67930;SDS011;63902;52.000;5.954;2024-01-16T01:32:10;5.30;;;1.60;;
67930;SDS011;63902;52.000;5.954;2024-01-16T01:33:10;3.17;;;1.58;;
67930;SDS011;63902;52.000;5.954;2024-01-16T01:34:11;6.25;;;1.50;;
67930;SDS011;63902;52.000;5.954;2024-01-16T01:35:11;6.22;;;2.38;;
67930;SDS011;63902;52.000;5.954;2024-01-16T01:36:12;3.60;;;1.60;;
67930;SDS011;63902;52.000;5.954;2024-01-16T01:37:12;5.88;;;1.52;;
67930;SDS011;63902;52.000;5.954;2024-01-16T01:38:13;7.22;;;2.10;;
67930;SDS011;63902;52.000;5.954;2024-01-16T01:39:13;8.90;;;1.63;;
67930;SDS011;63902;52.000;5.954;2024-01-16T01:40:14;5.18;;;1.48;;
67930;SDS011;63902;52.000;5.954;2024-01-16T01:41:16;4.40;;;1.40;;
67930;SDS011;63902;52.000;5.954;2024-01-16T01:42:16;9.73;;;2.20;;
67930;SDS011;63902;52.000;5.954;2024-01-16T01:43:17;6.20;;;1.80;;
67930;SDS011;63902;52.000;5.954;2024-01-16T01:44:19;3.53;;;1.52;;
67930;SDS011;63902;52.000;5.954;2024-01-16T01:45:19;6.70;;;1.45;;
67930;SDS011;63902;52.000;5.954;2024-01-16T01:46:20;7.93;;;1.80;;
67930;SDS011;63902;52.000;5.954;2024-01-16T01:47:21;3.97;;;1.52;;
67930;SDS011;63902;52.000;5.954;2024-01-16T01:48:22;5.05;;;1.65;;
67930;SDS011;63902;52.000;5.954;2024-01-16T01:49:23;15.07;;;1.98;;
67930;SDS011;63902;52.000;5.954;2024-01-16T01:50:24;4.45;;;1.65;;
67930;SDS011;63902;52.000;5.954;2024-01-16T01:51:25;5.97;;;2.03;;
67930;SDS011;63902;52.000;5.954;2024-01-16T01:52:26;9.57;;;1.52;;
67930;SDS011;63902;52.000;5.954;2024-01-16T01:53:26;4.55;;;1.70;;
67930;SDS011;63902;52.000;5.954;2024-01-16T01:54:28;5.47;;;1.30;;
67930;SDS011;63902;52.000;5.954;2024-01-16T01:55:29;3.40;;;1.55;;
67930;SDS011;63902;52.000;5.954;2024-01-16T01:56:31;4.20;;;1.55;;
67930;SDS011;63902;52.000;5.954;2024-01-16T01:57:32;3.03;;;1.40;;
67930;SDS011;63902;52.000;5.954;2024-01-16T01:58:33;7.50;;;1.40;;
67930;SDS011;63902;52.000;5.954;2024-01-16T01:59:34;3.38;;;1.33;;
67930;SDS011;63902;52.000;5.954;2024-01-16T02:00:35;9.10;;;1.95;;
67930;SDS011;63902;52.000;5.954;2024-01-16T02:01:36;7.45;;;1.92;;
67930;SDS011;63902;52.000;5.954;2024-01-16T02:02:36;7.75;;;2.00;;
67930;SDS011;63902;52.000;5.954;2024-01-16T02:03:39;9.20;;;1.70;;
67930;SDS011;63902;52.000;5.954;2024-01-16T02:04:42;3.63;;;1.80;;
67930;SDS011;63902;52.000;5.954;2024-01-16T02:05:43;3.90;;;1.63;;
67930;SDS011;63902;52.000;5.954;2024-01-16T02:06:44;5.32;;;2.17;;
67930;SDS011;63902;52.000;5.954;2024-01-16T02:07:45;4.85;;;1.67;;
67930;SDS011;63902;52.000;5.954;2024-01-16T02:08:46;4.97;;;1.30;;
67930;SDS011;63902;52.000;5.954;2024-01-16T02:09:47;15.85;;;1.75;;
67930;SDS011;63902;52.000;5.954;2024-01-16T02:10:49;5.47;;;1.58;;
67930;SDS011;63902;52.000;5.954;2024-01-16T02:11:51;7.40;;;2.28;;
67930;SDS011;63902;52.000;5.954;2024-01-16T02:12:51;5.20;;;1.98;;
67930;SDS011;63902;52.000;5.954;2024-01-16T02:13:52;4.47;;;1.88;;
67930;SDS011;63902;52.000;5.954;2024-01-16T02:14:52;4.63;;;1.40;;
67930;SDS011;63902;52.000;5.954;2024-01-16T02:15:53;3.63;;;1.48;;
67930;SDS011;63902;52.000;5.954;2024-01-16T02:16:53;6.13;;;2.03;;
67930;SDS011;63902;52.000;5.954;2024-01-16T02:17:54;5.40;;;1.75;;
67930;SDS011;63902;52.000;5.954;2024-01-16T02:18:54;6.70;;;1.27;;
67930;SDS011;63902;52.000;5.954;2024-01-16T02:19:55;5.53;;;1.58;;
67930;SDS011;63902;52.000;5.954;2024-01-16T02:20:55;7.57;;;2.13;;
67930;SDS011;63902;52.000;5.954;2024-01-16T02:22:00;8.35;;;1.70;;
67930;SDS011;63902;52.000;5.954;2024-01-16T02:23:05;7.63;;;1.80;;
67930;SDS011;63902;52.000;5.954;2024-01-16T02:24:08;9.00;;;1.65;;
67930;SDS011;63902;52.000;5.954;2024-01-16T02:25:10;4.28;;;1.55;;
67930;SDS011;63902;52.000;5.954;2024-01-16T02:26:11;5.38;;;1.40;;
67930;SDS011;63902;52.000;5.954;2024-01-16T02:27:11;7.80;;;1.83;;
67930;SDS011;63902;52.000;5.954;2024-01-16T02:28:12;6.40;;;1.50;;
67930;SDS011;63902;52.000;5.954;2024-01-16T02:29:12;4.30;;;1.60;;
67930;SDS011;63902;52.000;5.954;2024-01-16T02:30:13;8.63;;;2.03;;
67930;SDS011;63902;52.000;5.954;2024-01-16T02:31:13;4.00;;;1.65;;
67930;SDS011;63902;52.000;5.954;2024-01-16T02:32:14;5.53;;;1.80;;
67930;SDS011;63902;52.000;5.954;2024-01-16T02:33:16;4.97;;;1.70;;
67930;SDS011;63902;52.000;5.954;2024-01-16T02:34:16;8.63;;;2.10;;
67930;SDS011;63902;52.000;5.954;2024-01-16T02:35:17;6.30;;;1.50;;
67930;SDS011;63902;52.000;5.954;2024-01-16T02:36:17;8.60;;;2.20;;
67930;SDS011;63902;52.000;5.954;2024-01-16T02:37:17;4.72;;;1.52;;
67930;SDS011;63902;52.000;5.954;2024-01-16T02:38:18;10.80;;;2.58;;
67930;SDS011;63902;52.000;5.954;2024-01-16T02:39:20;7.63;;;2.00;;
67930;SDS011;63902;52.000;5.954;2024-01-16T02:40:20;4.22;;;1.70;;
67930;SDS011;63902;52.000;5.954;2024-01-16T02:41:21;5.28;;;2.03;;
67930;SDS011;63902;52.000;5.954;2024-01-16T02:42:21;3.42;;;1.80;;
67930;SDS011;63902;52.000;5.954;2024-01-16T02:43:22;4.07;;;1.55;;
67930;SDS011;63902;52.000;5.954;2024-01-16T02:44:22;6.35;;;2.00;;
67930;SDS011;63902;52.000;5.954;2024-01-16T02:45:22;4.70;;;2.25;;
67930;SDS011;63902;52.000;5.954;2024-01-16T02:46:23;5.75;;;2.25;;
67930;SDS011;63902;52.000;5.954;2024-01-16T02:47:23;8.15;;;2.95;;
67930;SDS011;63902;52.000;5.954;2024-01-16T02:48:24;8.05;;;2.20;;
67930;SDS011;63902;52.000;5.954;2024-01-16T02:49:24;7.07;;;2.47;;
67930;SDS011;63902;52.000;5.954;2024-01-16T02:50:25;4.38;;;2.83;;
67930;SDS011;63902;52.000;5.954;2024-01-16T02:51:25;4.25;;;2.45;;
67930;SDS011;63902;52.000;5.954;2024-01-16T02:52:26;6.63;;;2.42;;
67930;SDS011;63902;52.000;5.954;2024-01-16T02:53:26;9.00;;;2.90;;
67930;SDS011;63902;52.000;5.954;2024-01-16T02:54:28;4.47;;;3.05;;
67930;SDS011;63902;52.000;5.954;2024-01-16T02:55:29;6.72;;;3.25;;
67930;SDS011;63902;52.000;5.954;2024-01-16T02:56:29;7.93;;;2.63;;
67930;SDS011;63902;52.000;5.954;2024-01-16T02:57:29;8.02;;;2.80;;
67930;SDS011;63902;52.000;5.954;2024-01-16T02:58:30;13.68;;;2.40;;
67930;SDS011;63902;52.000;5.954;2024-01-16T02:59:30;4.25;;;2.17;;
67930;SDS011;63902;52.000;5.954;2024-01-16T03:00:31;5.00;;;2.40;;
67930;SDS011;63902;52.000;5.954;2024-01-16T03:01:31;4.25;;;2.33;;
67930;SDS011;63902;52.000;5.954;2024-01-16T03:02:32;3.42;;;2.30;;
67930;SDS011;63902;52.000;5.954;2024-01-16T03:03:32;3.58;;;2.15;;
67930;SDS011;63902;52.000;5.954;2024-01-16T03:04:33;4.80;;;2.65;;
67930;SDS011;63902;52.000;5.954;2024-01-16T03:05:33;4.50;;;2.40;;
67930;SDS011;63902;52.000;5.954;2024-01-16T03:06:34;5.65;;;2.67;;
67930;SDS011;63902;52.000;5.954;2024-01-16T03:07:34;9.30;;;3.75;;
67930;SDS011;63902;52.000;5.954;2024-01-16T03:08:35;5.25;;;2.92;;
67930;SDS011;63902;52.000;5.954;2024-01-16T03:09:36;3.72;;;2.42;;
67930;SDS011;63902;52.000;5.954;2024-01-16T03:10:37;9.43;;;2.72;;
67930;SDS011;63902;52.000;5.954;2024-01-16T03:11:37;6.82;;;2.80;;
67930;SDS011;63902;52.000;5.954;2024-01-16T03:12:38;4.90;;;2.53;;
67930;SDS011;63902;52.000;5.954;2024-01-16T03:13:39;4.93;;;2.70;;
67930;SDS011;63902;52.000;5.954;2024-01-16T03:14:39;6.68;;;2.78;;
67930;SDS011;63902;52.000;5.954;2024-01-16T03:15:39;8.07;;;2.90;;
67930;SDS011;63902;52.000;5.954;2024-01-16T03:16:40;8.52;;;2.70;;
67930;SDS011;63902;52.000;5.954;2024-01-16T03:17:40;5.05;;;2.30;;
67930;SDS011;63902;52.000;5.954;2024-01-16T03:18:41;7.30;;;2.65;;
67930;SDS011;63902;52.000;5.954;2024-01-16T03:19:41;4.93;;;2.80;;
67930;SDS011;63902;52.000;5.954;2024-01-16T03:20:42;7.85;;;2.53;;
67930;SDS011;63902;52.000;5.954;2024-01-16T03:21:43;10.18;;;3.30;;
67930;SDS011;63902;52.000;5.954;2024-01-16T03:22:43;9.27;;;2.70;;
67930;SDS011;63902;52.000;5.954;2024-01-16T03:23:44;7.80;;;2.65;;
67930;SDS011;63902;52.000;5.954;2024-01-16T03:24:46;9.32;;;2.85;;
67930;SDS011;63902;52.000;5.954;2024-01-16T03:25:47;7.68;;;2.33;;
67930;SDS011;63902;52.000;5.954;2024-01-16T03:26:47;6.78;;;3.00;;
67930;SDS011;63902;52.000;5.954;2024-01-16T03:27:47;6.00;;;2.42;;
67930;SDS011;63902;52.000;5.954;2024-01-16T03:28:48;4.30;;;2.42;;
67930;SDS011;63902;52.000;5.954;2024-01-16T03:29:48;6.78;;;2.75;;
67930;SDS011;63902;52.000;5.954;2024-01-16T03:30:49;9.90;;;2.92;;
67930;SDS011;63902;52.000;5.954;2024-01-16T03:31:49;11.38;;;2.70;;
67930;SDS011;63902;52.000;5.954;2024-01-16T03:32:50;8.80;;;2.58;;
67930;SDS011;63902;52.000;5.954;2024-01-16T03:33:50;4.28;;;2.28;;
67930;SDS011;63902;52.000;5.954;2024-01-16T03:34:51;6.95;;;2.50;;
67930;SDS011;63902;52.000;5.954;2024-01-16T03:35:51;4.68;;;2.38;;
67930;SDS011;63902;52.000;5.954;2024-01-16T03:36:51;4.25;;;2.10;;
67930;SDS011;63902;52.000;5.954;2024-01-16T03:37:52;7.25;;;2.55;;
67930;SDS011;63902;52.000;5.954;2024-01-16T03:38:54;7.22;;;2.47;;
67930;SDS011;63902;52.000;5.954;2024-01-16T03:39:56;3.88;;;2.53;;
67930;SDS011;63902;52.000;5.954;2024-01-16T03:40:57;4.53;;;2.38;;
67930;SDS011;63902;52.000;5.954;2024-01-16T03:41:58;6.65;;;2.42;;
67930;SDS011;63902;52.000;5.954;2024-01-16T03:42:58;3.40;;;2.30;;
67930;SDS011;63902;52.000;5.954;2024-01-16T03:43:58;3.28;;;2.40;;
67930;SDS011;63902;52.000;5.954;2024-01-16T03:44:59;6.15;;;2.45;;
67930;SDS011;63902;52.000;5.954;2024-01-16T03:45:59;5.90;;;2.63;;
67930;SDS011;63902;52.000;5.954;2024-01-16T03:47:00;5.47;;;3.42;;
67930;SDS011;63902;52.000;5.954;2024-01-16T03:48:01;4.10;;;2.30;;
67930;SDS011;63902;52.000;5.954;2024-01-16T03:49:02;6.22;;;2.83;;
67930;SDS011;63902;52.000;5.954;2024-01-16T03:50:02;6.30;;;2.67;;
67930;SDS011;63902;52.000;5.954;2024-01-16T03:51:03;6.63;;;2.80;;
67930;SDS011;63902;52.000;5.954;2024-01-16T03:52:04;6.07;;;3.00;;
67930;SDS011;63902;52.000;5.954;2024-01-16T03:53:05;4.25;;;2.42;;
67930;SDS011;63902;52.000;5.954;2024-01-16T03:54:06;6.07;;;3.30;;
67930;SDS011;63902;52.000;5.954;2024-01-16T03:55:08;4.63;;;3.42;;
67930;SDS011;63902;52.000;5.954;2024-01-16T03:56:08;6.82;;;3.38;;
67930;SDS011;63902;52.000;5.954;2024-01-16T03:57:09;5.57;;;3.35;;
67930;SDS011;63902;52.000;5.954;2024-01-16T03:58:09;7.32;;;2.92;;
67930;SDS011;63902;52.000;5.954;2024-01-16T03:59:10;6.57;;;3.53;;
67930;SDS011;63902;52.000;5.954;2024-01-16T04:00:11;7.32;;;2.97;;
67930;SDS011;63902;52.000;5.954;2024-01-16T04:01:12;9.88;;;3.40;;
67930;SDS011;63902;52.000;5.954;2024-01-16T04:02:12;7.90;;;3.22;;
67930;SDS011;63902;52.000;5.954;2024-01-16T04:03:13;6.28;;;3.17;;
67930;SDS011;63902;52.000;5.954;2024-01-16T04:04:14;8.82;;;3.50;;
67930;SDS011;63902;52.000;5.954;2024-01-16T04:05:14;6.60;;;3.42;;
67930;SDS011;63902;52.000;5.954;2024-01-16T04:06:15;8.63;;;3.67;;
67930;SDS011;63902;52.000;5.954;2024-01-16T04:07:16;6.30;;;3.60;;
67930;SDS011;63902;52.000;5.954;2024-01-16T04:08:17;7.47;;;3.22;;
67930;SDS011;63902;52.000;5.954;2024-01-16T04:09:17;9.85;;;3.45;;
67930;SDS011;63902;52.000;5.954;2024-01-16T04:10:19;7.10;;;3.53;;
67930;SDS011;63902;52.000;5.954;2024-01-16T04:11:20;5.22;;;3.13;;
67930;SDS011;63902;52.000;5.954;2024-01-16T04:12:20;6.47;;;4.03;;
67930;SDS011;63902;52.000;5.954;2024-01-16T04:13:21;9.30;;;3.17;;
67930;SDS011;63902;52.000;5.954;2024-01-16T04:14:22;7.78;;;3.15;;
67930;SDS011;63902;52.000;5.954;2024-01-16T04:15:22;11.68;;;3.28;;
67930;SDS011;63902;52.000;5.954;2024-01-16T04:16:23;4.65;;;2.65;;
67930;SDS011;63902;52.000;5.954;2024-01-16T04:17:23;9.13;;;3.25;;
67930;SDS011;63902;52.000;5.954;2024-01-16T04:18:24;5.10;;;3.38;;
67930;SDS011;63902;52.000;5.954;2024-01-16T04:19:24;4.18;;;2.95;;
67930;SDS011;63902;52.000;5.954;2024-01-16T04:20:25;8.13;;;2.70;;
67930;SDS011;63902;52.000;5.954;2024-01-16T04:21:25;7.72;;;3.47;;
67930;SDS011;63902;52.000;5.954;2024-01-16T04:22:25;11.63;;;3.13;;
67930;SDS011;63902;52.000;5.954;2024-01-16T04:23:26;4.97;;;3.10;;
67930;SDS011;63902;52.000;5.954;2024-01-16T04:24:26;5.20;;;3.00;;
67930;SDS011;63902;52.000;5.954;2024-01-16T04:25:28;7.65;;;2.78;;
67930;SDS011;63902;52.000;5.954;2024-01-16T04:26:29;8.65;;;2.58;;
67930;SDS011;63902;52.000;5.954;2024-01-16T04:27:29;5.65;;;2.90;;
67930;SDS011;63902;52.000;5.954;2024-01-16T04:28:30;3.88;;;2.60;;
67930;SDS011;63902;52.000;5.954;2024-01-16T04:29:30;6.15;;;2.38;;
67930;SDS011;63902;52.000;5.954;2024-01-16T04:30:30;8.13;;;2.83;;
67930;SDS011;63902;52.000;5.954;2024-01-16T04:31:32;9.45;;;3.15;;
67930;SDS011;63902;52.000;5.954;2024-01-16T04:32:38;3.05;;;1.70;;
67930;SDS011;63902;52.000;5.954;2024-01-16T04:33:39;3.92;;;1.90;;
67930;SDS011;63902;52.000;5.954;2024-01-16T04:34:40;4.43;;;2.25;;
67930;SDS011;63902;52.000;5.954;2024-01-16T04:35:40;4.53;;;2.17;;
67930;SDS011;63902;52.000;5.954;2024-01-16T04:36:41;7.22;;;2.33;;
67930;SDS011;63902;52.000;5.954;2024-01-16T04:37:41;4.82;;;2.35;;
67930;SDS011;63902;52.000;5.954;2024-01-16T04:38:42;7.88;;;2.00;;
67930;SDS011;63902;52.000;5.954;2024-01-16T04:39:42;12.60;;;2.97;;
67930;SDS011;63902;52.000;5.954;2024-01-16T04:40:44;5.07;;;2.15;;
67930;SDS011;63902;52.000;5.954;2024-01-16T04:41:44;3.35;;;1.77;;
67930;SDS011;63902;52.000;5.954;2024-01-16T04:42:45;4.10;;;1.80;;
67930;SDS011;63902;52.000;5.954;2024-01-16T04:43:45;5.60;;;2.55;;
67930;SDS011;63902;52.000;5.954;2024-01-16T04:44:46;3.58;;;2.22;;
67930;SDS011;63902;52.000;5.954;2024-01-16T04:45:46;5.28;;;2.40;;
67930;SDS011;63902;52.000;5.954;2024-01-16T04:46:47;9.10;;;2.28;;
67930;SDS011;63902;52.000;5.954;2024-01-16T04:47:47;4.90;;;2.13;;
67930;SDS011;63902;52.000;5.954;2024-01-16T04:48:48;5.15;;;1.98;;
67930;SDS011;63902;52.000;5.954;2024-01-16T04:49:48;6.35;;;2.38;;
67930;SDS011;63902;52.000;5.954;2024-01-16T04:50:48;4.22;;;1.73;;
67930;SDS011;63902;52.000;5.954;2024-01-16T04:51:49;7.40;;;2.50;;
67930;SDS011;63902;52.000;5.954;2024-01-16T04:52:49;4.57;;;2.33;;
67930;SDS011;63902;52.000;5.954;2024-01-16T04:53:50;3.92;;;1.80;;
67930;SDS011;63902;52.000;5.954;2024-01-16T04:54:50;4.18;;;2.08;;
67930;SDS011;63902;52.000;5.954;2024-01-16T04:55:52;4.50;;;1.83;;
67930;SDS011;63902;52.000;5.954;2024-01-16T04:56:53;3.38;;;2.08;;
67930;SDS011;63902;52.000;5.954;2024-01-16T04:57:53;8.52;;;2.53;;
67930;SDS011;63902;52.000;5.954;2024-01-16T04:58:54;5.65;;;2.45;;
67930;SDS011;63902;52.000;5.954;2024-01-16T04:59:55;4.05;;;2.28;;
67930;SDS011;63902;52.000;5.954;2024-01-16T05:00:55;5.55;;;2.85;;
67930;SDS011;63902;52.000;5.954;2024-01-16T05:01:55;4.25;;;2.30;;
67930;SDS011;63902;52.000;5.954;2024-01-16T05:02:56;7.22;;;1.95;;
67930;SDS011;63902;52.000;5.954;2024-01-16T05:03:56;3.63;;;2.15;;
67930;SDS011;63902;52.000;5.954;2024-01-16T05:04:57;4.40;;;2.25;;
67930;SDS011;63902;52.000;5.954;2024-01-16T05:05:57;6.18;;;1.98;;
67930;SDS011;63902;52.000;5.954;2024-01-16T05:06:58;7.80;;;2.70;;
67930;SDS011;63902;52.000;5.954;2024-01-16T05:08:00;4.82;;;2.63;;
67930;SDS011;63902;52.000;5.954;2024-01-16T05:09:01;3.92;;;2.08;;
67930;SDS011;63902;52.000;5.954;2024-01-16T05:10:01;8.90;;;2.88;;
67930;SDS011;63902;52.000;5.954;2024-01-16T05:11:03;6.68;;;2.50;;
67930;SDS011;63902;52.000;5.954;2024-01-16T05:12:04;5.78;;;2.58;;
67930;SDS011;63902;52.000;5.954;2024-01-16T05:13:04;6.43;;;2.25;;
67930;SDS011;63902;52.000;5.954;2024-01-16T05:14:05;4.32;;;2.25;;
67930;SDS011;63902;52.000;5.954;2024-01-16T05:15:06;6.18;;;2.60;;
67930;SDS011;63902;52.000;5.954;2024-01-16T05:16:07;6.00;;;2.67;;
67930;SDS011;63902;52.000;5.954;2024-01-16T05:17:08;6.78;;;2.47;;
67930;SDS011;63902;52.000;5.954;2024-01-16T05:18:08;5.80;;;3.00;;
67930;SDS011;63902;52.000;5.954;2024-01-16T05:19:08;10.50;;;3.00;;
67930;SDS011;63902;52.000;5.954;2024-01-16T05:20:09;6.80;;;2.80;;
67930;SDS011;63902;52.000;5.954;2024-01-16T05:21:10;11.35;;;2.80;;
67930;SDS011;63902;52.000;5.954;2024-01-16T05:22:10;5.70;;;2.42;;
67930;SDS011;63902;52.000;5.954;2024-01-16T05:23:11;3.13;;;2.33;;
67930;SDS011;63902;52.000;5.954;2024-01-16T05:24:11;8.05;;;2.80;;
67930;SDS011;63902;52.000;5.954;2024-01-16T05:25:12;9.95;;;3.20;;
67930;SDS011;63902;52.000;5.954;2024-01-16T05:26:13;5.45;;;3.38;;
67930;SDS011;63902;52.000;5.954;2024-01-16T05:27:14;6.63;;;2.72;;
67930;SDS011;63902;52.000;5.954;2024-01-16T05:28:14;7.05;;;2.55;;
67930;SDS011;63902;52.000;5.954;2024-01-16T05:29:16;4.82;;;2.30;;
67930;SDS011;63902;52.000;5.954;2024-01-16T05:30:18;6.38;;;2.72;;
67930;SDS011;63902;52.000;5.954;2024-01-16T05:31:18;4.03;;;2.80;;
67930;SDS011;63902;52.000;5.954;2024-01-16T05:32:19;18.75;;;2.70;;
67930;SDS011;63902;52.000;5.954;2024-01-16T05:33:19;7.40;;;3.42;;
67930;SDS011;63902;52.000;5.954;2024-01-16T05:34:19;3.72;;;2.70;;
67930;SDS011;63902;52.000;5.954;2024-01-16T05:35:20;9.10;;;3.65;;
67930;SDS011;63902;52.000;5.954;2024-01-16T05:36:20;5.18;;;2.92;;
67930;SDS011;63902;52.000;5.954;2024-01-16T05:37:21;6.13;;;2.75;;
67930;SDS011;63902;52.000;5.954;2024-01-16T05:38:21;8.13;;;3.22;;
67930;SDS011;63902;52.000;5.954;2024-01-16T05:39:22;5.65;;;3.38;;
67930;SDS011;63902;52.000;5.954;2024-01-16T05:40:22;4.30;;;2.75;;
67930;SDS011;63902;52.000;5.954;2024-01-16T05:41:24;6.22;;;2.95;;
67930;SDS011;63902;52.000;5.954;2024-01-16T05:42:25;7.63;;;2.40;;
67930;SDS011;63902;52.000;5.954;2024-01-16T05:43:25;4.00;;;2.83;;
67930;SDS011;63902;52.000;5.954;2024-01-16T05:44:25;3.92;;;2.78;;
67930;SDS011;63902;52.000;5.954;2024-01-16T05:45:26;7.20;;;2.45;;
67930;SDS011;63902;52.000;5.954;2024-01-16T05:46:26;6.10;;;2.78;;
67930;SDS011;63902;52.000;5.954;2024-01-16T05:47:27;6.57;;;2.47;;
67930;SDS011;63902;52.000;5.954;2024-01-16T05:48:27;5.60;;;2.85;;
67930;SDS011;63902;52.000;5.954;2024-01-16T05:49:28;3.70;;;2.67;;
67930;SDS011;63902;52.000;5.954;2024-01-16T05:50:28;5.25;;;2.55;;
67930;SDS011;63902;52.000;5.954;2024-01-16T05:51:29;7.20;;;2.50;;
67930;SDS011;63902;52.000;5.954;2024-01-16T05:52:29;4.25;;;2.50;;
67930;SDS011;63902;52.000;5.954;2024-01-16T05:53:30;5.07;;;2.42;;
67930;SDS011;63902;52.000;5.954;2024-01-16T05:54:30;4.03;;;2.92;;
67930;SDS011;63902;52.000;5.954;2024-01-16T05:55:31;8.35;;;2.72;;
67930;SDS011;63902;52.000;5.954;2024-01-16T05:56:33;3.17;;;2.40;;
67930;SDS011;63902;52.000;5.954;2024-01-16T05:57:33;3.92;;;2.38;;
67930;SDS011;63902;52.000;5.954;2024-01-16T05:58:34;4.15;;;1.80;;
67930;SDS011;63902;52.000;5.954;2024-01-16T05:59:34;5.60;;;2.20;;
67930;SDS011;63902;52.000;5.954;2024-01-16T06:00:34;6.65;;;2.08;;
67930;SDS011;63902;52.000;5.954;2024-01-16T06:01:35;3.90;;;1.92;;
67930;SDS011;63902;52.000;5.954;2024-01-16T06:02:35;6.22;;;2.20;;
67930;SDS011;63902;52.000;5.954;2024-01-16T06:03:36;5.05;;;1.70;;
67930;SDS011;63902;52.000;5.954;2024-01-16T06:04:36;4.85;;;2.08;;
67930;SDS011;63902;52.000;5.954;2024-01-16T06:05:37;7.10;;;2.05;;